Time;durP1;ratioP1;P1;durP2;ratioP2;P2;SDS_P1;SDS_P2;PMS_P1;PMS_P2;Temp;Humidity;BMP_temperature;BMP_pressure;BME280_temperature;BME280_humidity;BME280_pressure;Samples;Min_cycle;Max_cycle;Signal;HPM_P1;HPM_P2
2021/12/07 00:02:01;;;;;;;22.10;10.50;;;;;;;;;;5021131;28;97299;-73
2021/12/07 00:04:28;;;;;;;17.45;9.52;;;;;;;;;;5015511;28;97018;-74
2021/12/07 00:06:54;;;;;;;20.95;10.10;;;;;;;;;;5031778;28;96270;-74
2021/12/07 00:09:22;;;;;;;17.80;10.32;;;;;;;;;;5007743;28;97349;-74
2021/12/07 00:11:49;;;;;;;21.15;10.13;;;;;;;;;;5021633;28;95191;-74
2021/12/07 00:14:23;;;;;;;21.73;10.80;;;;;;;;;;5014601;28;96871;-74
2021/12/07 00:16:50;;;;;;;20.30;10.50;;;;;;;;;;5031635;28;97420;-74
2021/12/07 00:19:16;;;;;;;23.55;11.52;;;;;;;;;;5033595;28;95399;-74
2021/12/07 00:21:43;;;;;;;22.98;11.63;;;;;;;;;;5036947;28;97179;-74
2021/12/07 00:24:11;;;;;;;21.52;10.98;;;;;;;;;;5018128;28;95328;-74
2021/12/07 00:26:38;;;;;;;23.60;10.95;;;;;;;;;;5035082;28;95874;-74
2021/12/07 00:29:05;;;;;;;25.75;12.07;;;;;;;;;;5035356;28;97400;-74
2021/12/07 00:31:40;;;;;;;21.98;11.20;;;;;;;;;;5032900;28;95267;-74
2021/12/07 00:36:35;;;;;;;26.48;11.80;;;;;;;;;;5035289;28;96465;-74
2021/12/07 00:39:03;;;;;;;25.08;11.88;;;;;;;;;;5034486;28;95308;-74
2021/12/07 00:41:29;;;;;;;23.08;11.60;;;;;;;;;;5036359;28;96971;-74
2021/12/07 00:43:56;;;;;;;28.20;12.75;;;;;;;;;;5016203;28;95361;-73
2021/12/07 00:46:24;;;;;;;31.00;12.65;;;;;;;;;;5033506;28;97486;-74
2021/12/07 00:48:50;;;;;;;28.67;12.88;;;;;;;;;;5016830;28;97409;-74
2021/12/07 00:51:17;;;;;;;25.40;12.43;;;;;;;;;;5034469;28;95369;-73
2021/12/07 00:53:43;;;;;;;29.67;13.38;;;;;;;;;;5024661;28;96703;-74
2021/12/07 00:56:09;;;;;;;38.80;13.05;;;;;;;;;;5031355;28;97497;-73
2021/12/07 00:58:36;;;;;;;34.83;14.55;;;;;;;;;;5034577;28;95184;-74
2021/12/07 01:01:05;;;;;;;31.10;13.40;;;;;;;;;;5035144;28;96604;-73
2021/12/07 01:03:32;;;;;;;26.83;13.10;;;;;;;;;;5030583;28;97843;-74
2021/12/07 01:06:16;;;;;;;31.55;13.77;;;;;;;;;;5029524;28;96744;-73
2021/12/07 01:24:57;;;;;;;32.38;14.57;;;;;;;;;;5020891;28;97191;-73
2021/12/07 01:27:24;;;;;;;48.80;16.17;;;;;;;;;;5017019;28;95857;-72
2021/12/07 01:30:03;;;;;;;47.05;17.13;;;;;;;;;;5017939;28;99432;-73
2021/12/07 01:32:47;;;;;;;40.60;17.30;;;;;;;;;;5018308;28;95278;-72
2021/12/07 01:51:27;;;;;;;56.58;18.58;;;;;;;;;;5029484;28;97064;-73
2021/12/07 01:59:35;;;;;;;39.70;18.48;;;;;;;;;;4991568;28;97434;-71
2021/12/07 02:02:06;;;;;;;47.10;19.17;;;;;;;;;;5033373;28;95351;-71
2021/12/07 02:04:33;;;;;;;61.80;20.70;;;;;;;;;;5029464;28;96653;-72
2021/12/07 02:06:59;;;;;;;52.92;20.17;;;;;;;;;;5013841;28;97214;-74
2021/12/07 02:09:26;;;;;;;56.97;20.30;;;;;;;;;;5012749;28;95269;-72
2021/12/07 02:11:58;;;;;;;70.78;23.38;;;;;;;;;;5029341;28;97210;-72
2021/12/07 02:14:25;;;;;;;58.97;20.48;;;;;;;;;;5024770;28;97110;-71
2021/12/07 02:17:03;;;;;;;59.50;20.55;;;;;;;;;;5032167;28;96917;-71
2021/12/07 02:19:30;;;;;;;64.05;21.40;;;;;;;;;;5032908;28;96448;-72
2021/12/07 02:21:57;;;;;;;58.90;20.80;;;;;;;;;;5015837;28;95146;-72
2021/12/07 02:24:24;;;;;;;65.97;21.40;;;;;;;;;;5031220;28;96727;-72
2021/12/07 02:26:51;;;;;;;65.03;20.75;;;;;;;;;;5022007;28;96330;-72
2021/12/07 02:29:18;;;;;;;76.05;20.13;;;;;;;;;;5033531;28;95432;-72
2021/12/07 02:31:44;;;;;;;60.20;19.35;;;;;;;;;;5033245;28;95630;-72
2021/12/07 02:34:11;;;;;;;69.72;20.25;;;;;;;;;;5028595;28;97111;-72
2021/12/07 02:36:38;;;;;;;62.47;20.60;;;;;;;;;;5031268;28;95137;-72
2021/12/07 02:39:07;;;;;;;68.22;21.88;;;;;;;;;;5019033;28;97285;-73
2021/12/07 02:41:34;;;;;;;65.40;18.42;;;;;;;;;;5015001;28;95178;-72
2021/12/07 02:44:00;;;;;;;57.47;18.05;;;;;;;;;;5032329;28;96729;-73
2021/12/07 02:46:27;;;;;;;52.03;16.83;;;;;;;;;;5031142;28;97116;-72
2021/12/07 02:48:54;;;;;;;55.53;16.60;;;;;;;;;;5032250;28;95458;-73
2021/12/07 02:51:20;;;;;;;48.70;16.63;;;;;;;;;;5032929;28;96751;-72
2021/12/07 02:53:47;;;;;;;47.65;14.82;;;;;;;;;;5032111;28;97422;-72
2021/12/07 02:56:14;;;;;;;49.35;14.52;;;;;;;;;;5031877;28;95374;-73
2021/12/07 02:58:44;;;;;;;42.50;12.73;;;;;;;;;;5018018;28;98667;-72
2021/12/07 03:01:21;;;;;;;35.57;11.37;;;;;;;;;;5012952;28;95338;-73
2021/12/07 03:06:29;;;;;;;28.55;9.80;;;;;;;;;;5021565;28;97428;-72
2021/12/07 03:09:30;;;;;;;47.05;9.65;;;;;;;;;;5032489;28;95137;-72
2021/12/07 03:28:16;;;;;;;18.40;4.97;;;;;;;;;;5023088;28;96763;-72
2021/12/07 03:30:43;;;;;;;25.45;5.30;;;;;;;;;;5030502;28;95226;-73
2021/12/07 03:33:10;;;;;;;20.13;4.68;;;;;;;;;;5032810;28;97481;-73
2021/12/07 03:35:37;;;;;;;12.95;3.67;;;;;;;;;;5032356;28;97268;-73
2021/12/07 03:38:04;;;;;;;18.70;3.80;;;;;;;;;;5030398;28;95682;-73
2021/12/07 03:40:30;;;;;;;16.83;3.47;;;;;;;;;;5025059;28;96700;-73
2021/12/07 03:42:57;;;;;;;13.70;3.90;;;;;;;;;;5015657;28;97778;-73
2021/12/07 03:45:24;;;;;;;12.23;2.85;;;;;;;;;;5012654;28;96941;-73
2021/12/07 03:47:51;;;;;;;16.17;3.28;;;;;;;;;;5021777;28;97411;-73
2021/12/07 03:50:20;;;;;;;14.68;3.78;;;;;;;;;;5018351;28;95355;-73
2021/12/07 03:52:47;;;;;;;24.20;3.40;;;;;;;;;;5032779;27;96776;-73
2021/12/07 03:55:14;;;;;;;19.30;3.92;;;;;;;;;;5031625;28;97356;-72
2021/12/07 03:57:40;;;;;;;24.73;3.10;;;;;;;;;;5030419;28;95823;-74
2021/12/07 04:00:09;;;;;;;20.73;3.40;;;;;;;;;;5017485;28;96778;-73
2021/12/07 04:02:40;;;;;;;14.70;3.00;;;;;;;;;;5023351;28;96656;-73
2021/12/07 04:05:12;;;;;;;17.38;2.95;;;;;;;;;;5036034;28;95192;-73
2021/12/07 04:07:39;;;;;;;15.65;2.63;;;;;;;;;;5029906;28;97056;-73
2021/12/07 04:10:06;;;;;;;17.98;2.63;;;;;;;;;;5012831;28;95191;-73
2021/12/07 04:12:33;;;;;;;18.65;2.80;;;;;;;;;;5017964;28;98183;-73
2021/12/07 04:14:59;;;;;;;19.98;3.42;;;;;;;;;;5032388;28;97099;-73
2021/12/07 04:17:26;;;;;;;14.00;3.28;;;;;;;;;;5031605;28;95288;-73
2021/12/07 04:19:52;;;;;;;13.77;3.17;;;;;;;;;;5020268;28;95753;-73
2021/12/07 04:22:18;;;;;;;20.15;3.03;;;;;;;;;;5031661;28;97344;-73
2021/12/07 04:24:45;;;;;;;17.33;2.60;;;;;;;;;;5031821;28;95066;-73
2021/12/07 04:27:11;;;;;;;10.45;2.33;;;;;;;;;;5034392;28;97110;-73
2021/12/07 04:29:37;;;;;;;19.40;3.67;;;;;;;;;;5024342;28;95286;-73
2021/12/07 04:32:04;;;;;;;13.93;2.85;;;;;;;;;;5012254;28;96602;-73
2021/12/07 04:34:30;;;;;;;10.48;2.70;;;;;;;;;;5030032;28;97456;-73
2021/12/07 04:36:57;;;;;;;15.15;3.08;;;;;;;;;;5031274;28;95330;-73
2021/12/07 04:39:23;;;;;;;16.55;3.15;;;;;;;;;;5029677;28;95961;-73
2021/12/07 04:41:51;;;;;;;14.13;2.83;;;;;;;;;;5031053;28;97506;-73
2021/12/07 04:44:17;;;;;;;16.30;3.30;;;;;;;;;;5030963;28;95386;-73
2021/12/07 04:46:53;;;;;;;19.67;3.05;;;;;;;;;;5014226;28;96961;-73
2021/12/07 05:00:23;;;;;;;12.43;3.22;;;;;;;;;;4971852;28;96656;-73
2021/12/07 05:03:11;;;;;;;15.13;3.13;;;;;;;;;;5010890;28;96409;-73
2021/12/07 05:05:44;;;;;;;16.13;3.25;;;;;;;;;;5034125;28;95138;-72
2021/12/07 05:08:14;;;;;;;20.30;3.45;;;;;;;;;;5035057;28;96847;-73
2021/12/07 05:23:59;;;;;;;24.52;4.15;;;;;;;;;;5018914;28;97120;-73
2021/12/07 05:37:47;;;;;;;20.23;4.25;;;;;;;;;;5034268;28;97629;-73
2021/12/07 05:40:19;;;;;;;22.25;3.70;;;;;;;;;;5022535;28;95362;-72
2021/12/07 05:42:46;;;;;;;24.85;4.80;;;;;;;;;;5023967;28;96812;-72
2021/12/07 05:45:17;;;;;;;19.52;4.00;;;;;;;;;;5021977;28;97443;-72
2021/12/07 05:47:44;;;;;;;23.52;4.28;;;;;;;;;;5029991;28;95215;-72
2021/12/07 05:50:13;;;;;;;19.17;5.18;;;;;;;;;;5029539;27;97532;-72
2021/12/07 05:52:40;;;;;;;18.20;4.45;;;;;;;;;;5030308;27;97423;-72
2021/12/07 05:55:07;;;;;;;23.77;5.43;;;;;;;;;;5024244;28;95500;-72
2021/12/07 05:57:34;;;;;;;38.58;4.40;;;;;;;;;;5030791;28;97148;-72
2021/12/07 06:00:00;;;;;;;12.70;3.72;;;;;;;;;;5022970;28;95330;-72
2021/12/07 06:02:27;;;;;;;20.80;4.82;;;;;;;;;;5031309;28;95771;-72
2021/12/07 06:04:54;;;;;;;30.60;4.45;;;;;;;;;;5027744;28;96946;-72
2021/12/07 06:07:20;;;;;;;34.45;5.75;;;;;;;;;;5031848;28;96610;-72
2021/12/07 06:09:47;;;;;;;22.17;4.82;;;;;;;;;;5007759;28;96935;-72
2021/12/07 06:12:13;;;;;;;17.25;4.95;;;;;;;;;;5030122;28;97785;-73
2021/12/07 06:14:43;;;;;;;23.65;5.55;;;;;;;;;;5031629;28;95543;-72
2021/12/07 06:17:11;;;;;;;19.05;5.70;;;;;;;;;;5035698;27;97030;-72
2021/12/07 06:19:40;;;;;;;23.02;5.88;;;;;;;;;;5031089;28;96665;-72
2021/12/07 06:22:12;;;;;;;34.17;6.45;;;;;;;;;;5021329;28;95890;-72
2021/12/07 06:24:44;;;;;;;24.65;6.25;;;;;;;;;;5012729;28;96066;-73
2021/12/07 06:27:14;;;;;;;22.65;6.60;;;;;;;;;;5007658;28;95782;-72
2021/12/07 06:29:44;;;;;;;34.28;7.13;;;;;;;;;;5031954;28;95728;-72
2021/12/07 06:32:13;;;;;;;38.05;7.15;;;;;;;;;;5030937;28;96200;-73
2021/12/07 06:34:40;;;;;;;23.15;6.47;;;;;;;;;;5033437;28;95375;-73
2021/12/07 06:37:08;;;;;;;33.28;7.07;;;;;;;;;;5033206;28;95990;-73
2021/12/07 06:39:39;;;;;;;34.50;6.95;;;;;;;;;;5019414;28;96069;-73
2021/12/07 06:42:06;;;;;;;26.92;6.53;;;;;;;;;;5034876;28;96490;-73
2021/12/07 06:44:34;;;;;;;26.50;6.38;;;;;;;;;;5032470;28;96681;-73
2021/12/07 06:47:02;;;;;;;34.95;6.55;;;;;;;;;;5029087;28;95406;-73
2021/12/07 06:49:32;;;;;;;28.50;7.15;;;;;;;;;;5013250;28;96389;-73
2021/12/07 06:52:02;;;;;;;28.83;6.00;;;;;;;;;;5027528;28;95725;-73
2021/12/07 06:54:29;;;;;;;35.33;8.15;;;;;;;;;;5032986;28;95377;-73
2021/12/07 06:56:59;;;;;;;25.35;5.95;;;;;;;;;;5032725;28;96248;-74
2021/12/07 06:59:29;;;;;;;28.15;5.93;;;;;;;;;;5014868;28;96869;-74
2021/12/07 07:01:56;;;;;;;24.70;5.63;;;;;;;;;;5037190;28;95164;-74
2021/12/07 07:04:26;;;;;;;29.98;6.03;;;;;;;;;;5032416;28;97978;-74
2021/12/07 07:06:53;;;;;;;28.25;5.95;;;;;;;;;;5032668;28;95214;-75
2021/12/07 07:09:20;;;;;;;26.13;5.82;;;;;;;;;;5020720;28;95993;-74
2021/12/07 07:11:48;;;;;;;27.92;5.85;;;;;;;;;;5012574;28;97033;-74
2021/12/07 07:14:16;;;;;;;23.45;6.07;;;;;;;;;;5023408;28;95375;-74
2021/12/07 07:16:43;;;;;;;23.77;6.28;;;;;;;;;;5024513;28;96047;-74
2021/12/07 07:19:17;;;;;;;22.17;5.50;;;;;;;;;;5031703;28;96861;-74
2021/12/07 07:21:46;;;;;;;18.52;5.88;;;;;;;;;;5021101;28;95421;-74
2021/12/07 07:24:15;;;;;;;30.98;5.78;;;;;;;;;;5030194;28;95561;-72
2021/12/07 07:26:42;;;;;;;17.67;6.03;;;;;;;;;;5029930;27;95382;-72
2021/12/07 07:29:17;;;;;;;31.17;5.78;;;;;;;;;;5019449;28;95209;-72
2021/12/07 07:31:50;;;;;;;25.23;6.07;;;;;;;;;;5014271;28;96066;-73
2021/12/07 07:34:17;;;;;;;40.60;6.60;;;;;;;;;;5027314;28;95580;-72
2021/12/07 07:36:45;;;;;;;36.70;6.90;;;;;;;;;;5030698;28;95967;-72
2021/12/07 07:39:12;;;;;;;28.73;7.05;;;;;;;;;;5015636;28;97269;-72
2021/12/07 07:41:38;;;;;;;28.25;6.25;;;;;;;;;;5023007;28;96420;-72
2021/12/07 07:44:05;;;;;;;25.45;6.22;;;;;;;;;;5021723;28;95883;-72
2021/12/07 15:35:52;;;;;;;15.60;3.95;;;;;;;;;;5027684;28;95992;-73
2021/12/07 15:38:20;;;;;;;18.40;5.50;;;;;;;;;;5018712;28;97259;-73
2021/12/07 15:40:46;;;;;;;15.77;4.53;;;;;;;;;;5028279;28;95585;-73
2021/12/07 15:43:13;;;;;;;23.88;4.93;;;;;;;;;;5027761;27;96655;-73
2021/12/07 15:45:42;;;;;;;17.50;4.10;;;;;;;;;;5026447;28;97428;-73
2021/12/07 15:48:08;;;;;;;18.80;3.72;;;;;;;;;;5027051;28;96331;-71
2021/12/07 15:50:37;;;;;;;20.50;4.55;;;;;;;;;;5028068;28;95844;-73
2021/12/07 15:53:08;;;;;;;17.75;3.92;;;;;;;;;;5027107;27;97210;-74
2021/12/07 15:55:37;;;;;;;13.10;4.10;;;;;;;;;;5030446;27;95265;-71
2021/12/07 15:58:06;;;;;;;12.18;4.28;;;;;;;;;;5026222;28;95970;-71
2021/12/07 16:00:36;;;;;;;23.45;4.53;;;;;;;;;;5027174;28;96679;-71
2021/12/07 16:03:04;;;;;;;15.75;4.15;;;;;;;;;;5026025;28;96704;-71
2021/12/07 16:05:49;;;;;;;15.20;4.32;;;;;;;;;;5025849;27;97335;-72
2021/12/07 16:08:17;;;;;;;18.15;4.68;;;;;;;;;;5025910;27;95471;-73
2021/12/07 16:10:45;;;;;;;18.42;4.68;;;;;;;;;;5027061;28;96936;-71
2021/12/07 16:13:16;;;;;;;16.17;4.13;;;;;;;;;;5026225;28;97449;-72
2021/12/07 16:15:44;;;;;;;12.35;4.28;;;;;;;;;;5027628;28;95858;-72
2021/12/07 16:18:11;;;;;;;20.35;4.45;;;;;;;;;;5029130;27;96318;-71
2021/12/07 16:20:38;;;;;;;23.23;4.60;;;;;;;;;;5022112;28;95909;-72
2021/12/07 16:23:05;;;;;;;17.05;4.40;;;;;;;;;;5024333;27;95758;-72
2021/12/07 16:25:33;;;;;;;16.45;4.57;;;;;;;;;;5025391;27;96397;-72
2021/12/07 16:28:19;;;;;;;13.98;4.20;;;;;;;;;;5017836;28;95490;-72
2021/12/07 16:30:46;;;;;;;13.82;4.13;;;;;;;;;;5022202;28;97385;-72
2021/12/07 16:33:12;;;;;;;19.20;4.80;;;;;;;;;;5025911;28;97631;-72
2021/12/07 16:35:39;;;;;;;13.23;3.53;;;;;;;;;;5024292;28;95425;-72
2021/12/07 16:38:05;;;;;;;16.58;3.92;;;;;;;;;;5026570;27;97321;-73
2021/12/07 16:40:32;;;;;;;17.73;4.20;;;;;;;;;;5028125;27;98212;-73
2021/12/07 16:43:00;;;;;;;19.63;4.90;;;;;;;;;;5026450;28;96827;-73
2021/12/07 16:45:36;;;;;;;11.77;3.63;;;;;;;;;;5022213;28;97335;-73
2021/12/07 16:48:03;;;;;;;13.02;3.55;;;;;;;;;;5012798;28;96548;-73
2021/12/07 16:50:30;;;;;;;15.70;4.03;;;;;;;;;;5013312;28;96713;-73
2021/12/07 16:52:56;;;;;;;10.48;3.30;;;;;;;;;;5012166;28;97926;-74
2021/12/07 16:55:23;;;;;;;10.57;3.20;;;;;;;;;;5012393;28;95726;-73
2021/12/07 16:57:50;;;;;;;11.60;3.30;;;;;;;;;;5012930;28;98293;-72
2021/12/07 17:00:18;;;;;;;14.02;3.50;;;;;;;;;;5012953;28;97369;-74
2021/12/07 17:02:45;;;;;;;10.98;3.80;;;;;;;;;;5010376;28;96716;-73
2021/12/07 17:05:15;;;;;;;13.52;3.95;;;;;;;;;;5008269;28;97975;-73
2021/12/07 17:07:41;;;;;;;11.30;3.45;;;;;;;;;;5013389;28;95332;-73
2021/12/07 17:10:10;;;;;;;8.98;3.00;;;;;;;;;;5011284;28;96888;-73
2021/12/07 17:12:36;;;;;;;10.27;3.67;;;;;;;;;;5012635;28;97655;-73
2021/12/07 17:15:03;;;;;;;13.23;3.30;;;;;;;;;;5012986;28;95380;-74
2021/12/07 17:17:30;;;;;;;10.27;4.22;;;;;;;;;;5013661;28;97702;-71
2021/12/07 17:19:56;;;;;;;13.85;3.03;;;;;;;;;;5011657;28;97279;-71
2021/12/07 17:22:24;;;;;;;10.60;3.17;;;;;;;;;;5012886;28;95293;-72
2021/12/07 17:24:50;;;;;;;9.35;3.50;;;;;;;;;;5015408;28;97093;-72
2021/12/07 17:27:16;;;;;;;9.65;3.47;;;;;;;;;;5012982;28;95282;-71
2021/12/07 17:29:43;;;;;;;10.27;3.50;;;;;;;;;;5012115;28;96996;-73
2021/12/07 17:32:09;;;;;;;16.02;4.43;;;;;;;;;;5012075;28;97327;-73
2021/12/07 17:34:37;;;;;;;12.60;3.95;;;;;;;;;;5012242;28;95402;-73
2021/12/07 17:37:04;;;;;;;9.55;4.40;;;;;;;;;;5012545;28;96873;-73
2021/12/07 17:39:31;;;;;;;9.63;3.40;;;;;;;;;;5012512;28;97359;-73
2021/12/07 17:41:57;;;;;;;13.70;3.70;;;;;;;;;;5012369;28;96752;-73
2021/12/07 17:44:24;;;;;;;15.68;3.47;;;;;;;;;;5011904;28;96460;-74
2021/12/07 17:46:50;;;;;;;14.63;4.05;;;;;;;;;;5014900;28;95365;-73
2021/12/07 17:49:17;;;;;;;13.95;3.58;;;;;;;;;;5010319;28;96242;-73
2021/12/07 17:51:44;;;;;;;15.52;3.50;;;;;;;;;;5011590;28;96914;-73
2021/12/07 17:54:13;;;;;;;14.52;4.07;;;;;;;;;;5011748;28;95243;-73
2021/12/07 17:56:41;;;;;;;11.00;3.78;;;;;;;;;;5012607;28;96628;-73
2021/12/07 17:59:08;;;;;;;12.85;3.38;;;;;;;;;;5009640;28;97395;-72
2021/12/07 18:01:34;;;;;;;15.60;3.58;;;;;;;;;;5013171;28;95008;-72
2021/12/07 18:04:02;;;;;;;10.93;3.97;;;;;;;;;;5012104;28;95997;-72
2021/12/07 18:06:28;;;;;;;14.45;3.53;;;;;;;;;;5014723;28;97859;-73
2021/12/07 18:09:00;;;;;;;11.38;3.72;;;;;;;;;;5012108;28;97179;-72
2021/12/07 18:11:28;;;;;;;14.68;3.60;;;;;;;;;;5011771;28;97070;-72
2021/12/07 18:13:55;;;;;;;12.38;3.80;;;;;;;;;;5012287;28;95994;-73
2021/12/07 18:16:21;;;;;;;9.77;3.33;;;;;;;;;;5011410;28;96855;-72
2021/12/07 18:18:47;;;;;;;10.57;3.00;;;;;;;;;;5001098;28;96250;-72
2021/12/07 18:21:14;;;;;;;10.80;3.30;;;;;;;;;;5011635;28;96272;-72
2021/12/07 18:23:54;;;;;;;13.05;3.33;;;;;;;;;;5003424;28;96757;-72
2021/12/07 18:26:20;;;;;;;9.10;3.13;;;;;;;;;;5010788;28;97994;-73
2021/12/07 18:28:47;;;;;;;14.57;3.63;;;;;;;;;;5008444;28;96002;-73
2021/12/07 18:31:13;;;;;;;11.15;3.30;;;;;;;;;;5008054;28;97720;-72
2021/12/07 18:33:43;;;;;;;11.75;4.28;;;;;;;;;;5009997;28;96345;-72
2021/12/07 18:36:12;;;;;;;14.38;3.70;;;;;;;;;;5010663;28;97523;-72
2021/12/07 18:38:45;;;;;;;11.90;4.13;;;;;;;;;;5007099;28;98351;-72
2021/12/07 18:41:15;;;;;;;12.60;4.05;;;;;;;;;;5006145;28;95632;-72
2021/12/07 18:43:42;;;;;;;12.10;4.45;;;;;;;;;;5010723;28;96142;-72
2021/12/07 18:46:09;;;;;;;11.90;4.72;;;;;;;;;;5006197;28;97955;-72
2021/12/07 18:48:36;;;;;;;10.15;4.03;;;;;;;;;;4998503;28;95227;-72
2021/12/07 18:51:04;;;;;;;16.83;4.32;;;;;;;;;;5014841;28;96869;-73
2021/12/07 18:53:30;;;;;;;11.38;3.83;;;;;;;;;;5011576;28;95301;-72
2021/12/07 18:55:57;;;;;;;11.60;4.25;;;;;;;;;;5010974;28;96817;-72
2021/12/07 18:58:23;;;;;;;13.45;4.55;;;;;;;;;;5008714;28;97588;-72
2021/12/07 19:00:51;;;;;;;19.13;4.93;;;;;;;;;;5006627;28;96226;-71
2021/12/07 19:03:17;;;;;;;16.15;4.60;;;;;;;;;;5009057;28;96762;-72
2021/12/07 19:05:44;;;;;;;15.88;4.35;;;;;;;;;;5011252;28;97280;-72
2021/12/07 19:08:12;;;;;;;11.02;3.25;;;;;;;;;;5008288;28;95239;-73
2021/12/07 19:10:41;;;;;;;13.50;4.68;;;;;;;;;;5009102;28;96753;-72
2021/12/07 19:13:10;;;;;;;10.82;4.00;;;;;;;;;;5012575;28;97414;-71
2021/12/07 19:15:37;;;;;;;10.77;3.30;;;;;;;;;;5011247;28;97246;-72
2021/12/07 19:18:04;;;;;;;8.50;3.13;;;;;;;;;;5009379;28;97610;-72
2021/12/07 19:20:31;;;;;;;11.40;3.50;;;;;;;;;;5009792;28;95308;-72
2021/12/07 19:22:58;;;;;;;12.65;3.50;;;;;;;;;;5006557;28;95804;-72
2021/12/07 19:25:26;;;;;;;13.90;3.65;;;;;;;;;;5009332;28;97290;-72
2021/12/07 19:27:53;;;;;;;8.18;3.30;;;;;;;;;;5010618;28;95311;-72
2021/12/07 19:30:20;;;;;;;8.43;3.63;;;;;;;;;;5010449;28;96670;-73
2021/12/07 19:32:50;;;;;;;11.10;3.50;;;;;;;;;;5008946;28;97384;-73
2021/12/07 19:35:18;;;;;;;13.75;3.15;;;;;;;;;;5011589;28;96930;-73
2021/12/07 19:37:45;;;;;;;7.97;3.28;;;;;;;;;;5009725;28;97397;-72
2021/12/07 19:40:12;;;;;;;7.90;3.38;;;;;;;;;;5010896;28;95244;-72
2021/12/07 19:42:39;;;;;;;9.07;3.10;;;;;;;;;;5009100;28;95741;-72
2021/12/07 19:45:09;;;;;;;10.65;3.28;;;;;;;;;;5008622;28;96358;-72
2021/12/07 19:47:36;;;;;;;8.05;3.30;;;;;;;;;;5010214;28;95183;-73
2021/12/07 19:50:03;;;;;;;8.93;3.22;;;;;;;;;;5007132;28;97181;-72
2021/12/07 19:52:31;;;;;;;11.00;3.40;;;;;;;;;;5000708;28;97417;-73
2021/12/07 19:54:58;;;;;;;9.95;3.50;;;;;;;;;;5009541;28;95504;-73
2021/12/07 19:57:24;;;;;;;9.80;3.47;;;;;;;;;;5009014;28;97319;-73
2021/12/07 19:59:51;;;;;;;7.75;2.90;;;;;;;;;;5008322;28;96419;-72
2021/12/07 20:02:19;;;;;;;10.80;3.97;;;;;;;;;;5000690;28;96936;-73
2021/12/07 20:04:46;;;;;;;10.85;3.53;;;;;;;;;;5008915;28;96870;-73
2021/12/07 20:07:12;;;;;;;9.27;3.22;;;;;;;;;;5008163;28;95447;-73
2021/12/07 20:09:39;;;;;;;9.15;3.47;;;;;;;;;;5009393;28;97059;-73
2021/12/07 20:12:07;;;;;;;10.77;3.72;;;;;;;;;;5007490;28;97304;-73
2021/12/07 20:14:36;;;;;;;12.68;3.67;;;;;;;;;;5009379;28;95331;-73
2021/12/07 20:17:06;;;;;;;11.30;3.80;;;;;;;;;;5011318;28;97225;-73
2021/12/07 20:19:33;;;;;;;13.10;4.05;;;;;;;;;;5008336;28;96979;-73
2021/12/07 20:21:59;;;;;;;11.13;4.30;;;;;;;;;;5011277;28;95747;-73
2021/12/07 20:24:26;;;;;;;10.88;3.88;;;;;;;;;;5012612;28;97302;-73
2021/12/07 20:26:52;;;;;;;13.13;3.60;;;;;;;;;;5012737;28;95274;-72
2021/12/07 20:29:19;;;;;;;11.65;3.70;;;;;;;;;;5011976;28;96739;-73
2021/12/07 20:31:45;;;;;;;11.40;4.03;;;;;;;;;;5013852;28;97436;-73
2021/12/07 20:34:12;;;;;;;10.65;3.90;;;;;;;;;;5012377;28;95297;-73
2021/12/07 20:36:39;;;;;;;14.70;4.20;;;;;;;;;;5013494;28;96819;-73
2021/12/07 20:39:07;;;;;;;9.95;4.05;;;;;;;;;;5012142;28;97332;-73
2021/12/07 20:41:33;;;;;;;14.18;4.45;;;;;;;;;;5012361;28;96931;-73
2021/12/07 20:44:01;;;;;;;14.63;4.68;;;;;;;;;;5013531;28;97111;-73
2021/12/07 20:46:28;;;;;;;15.25;4.85;;;;;;;;;;5011256;28;95412;-73
2021/12/07 20:48:55;;;;;;;14.77;4.63;;;;;;;;;;5006410;28;96121;-73
2021/12/07 20:51:23;;;;;;;14.45;4.22;;;;;;;;;;5011325;28;97460;-73
2021/12/07 20:53:49;;;;;;;11.25;4.28;;;;;;;;;;5012174;28;95300;-73
2021/12/07 20:56:16;;;;;;;14.18;4.55;;;;;;;;;;5011770;28;96576;-73
2021/12/07 20:59:03;;;;;;;8.88;4.15;;;;;;;;;;5011441;28;99694;-73
2021/12/07 21:01:30;;;;;;;9.82;4.32;;;;;;;;;;5015423;28;96228;-74
2021/12/07 21:03:56;;;;;;;12.88;4.72;;;;;;;;;;5012543;28;97390;-73
2021/12/07 21:06:42;;;;;;;19.10;4.95;;;;;;;;;;5007252;28;95297;-73
2021/12/07 21:09:09;;;;;;;14.50;5.05;;;;;;;;;;5011592;28;96851;-73
2021/12/07 21:11:35;;;;;;;11.00;4.82;;;;;;;;;;5013812;28;97531;-73
2021/12/07 21:14:02;;;;;;;12.82;4.95;;;;;;;;;;5007209;28;95333;-73
2021/12/07 21:16:28;;;;;;;12.35;5.03;;;;;;;;;;5009395;28;96936;-73
2021/12/07 21:18:55;;;;;;;22.98;5.28;;;;;;;;;;5012826;28;97323;-74
2021/12/07 21:21:21;;;;;;;12.25;4.70;;;;;;;;;;5012517;28;95257;-74
2021/12/07 21:23:50;;;;;;;11.55;4.60;;;;;;;;;;5011293;28;97087;-74
2021/12/07 21:26:18;;;;;;;9.52;4.25;;;;;;;;;;5008902;28;95716;-74
2021/12/07 21:28:57;;;;;;;13.02;5.05;;;;;;;;;;5007234;28;96467;-73
2021/12/07 21:31:23;;;;;;;10.18;4.47;;;;;;;;;;5011891;28;97374;-74
2021/12/07 21:33:49;;;;;;;8.63;4.07;;;;;;;;;;5009409;28;95360;-74
2021/12/07 21:36:16;;;;;;;9.25;4.75;;;;;;;;;;5011766;28;96875;-73
2021/12/07 21:38:42;;;;;;;18.90;5.60;;;;;;;;;;5011591;28;97468;-73
2021/12/07 21:41:10;;;;;;;9.55;4.65;;;;;;;;;;5012486;28;95173;-75
2021/12/07 21:43:36;;;;;;;14.23;5.40;;;;;;;;;;5011867;28;97017;-74
2021/12/07 21:46:03;;;;;;;17.25;5.07;;;;;;;;;;5006625;28;97722;-73
2021/12/07 21:48:30;;;;;;;9.98;5.50;;;;;;;;;;5011783;28;96851;-74
2021/12/07 21:50:56;;;;;;;11.40;5.15;;;;;;;;;;5010892;28;97433;-74
2021/12/07 21:53:23;;;;;;;14.93;5.50;;;;;;;;;;5010979;28;95437;-74
2021/12/07 21:55:51;;;;;;;10.02;5.13;;;;;;;;;;5011096;28;95747;-74
2021/12/07 21:58:17;;;;;;;13.05;5.50;;;;;;;;;;5011197;28;97361;-74
2021/12/07 22:00:44;;;;;;;13.18;5.22;;;;;;;;;;5012353;28;95170;-75
2021/12/07 22:03:12;;;;;;;12.30;5.80;;;;;;;;;;5009867;28;96884;-75
2021/12/07 22:05:41;;;;;;;13.65;5.32;;;;;;;;;;5014028;28;96369;-74
2021/12/07 22:08:08;;;;;;;8.80;5.15;;;;;;;;;;5010380;28;97371;-73
2021/12/07 22:10:35;;;;;;;21.90;5.57;;;;;;;;;;5012869;28;97451;-74
2021/12/07 22:13:01;;;;;;;24.20;6.03;;;;;;;;;;5011325;28;95398;-73
2021/12/07 22:15:27;;;;;;;13.38;5.60;;;;;;;;;;5012842;28;96839;-75
2021/12/07 22:17:54;;;;;;;15.98;5.63;;;;;;;;;;5011640;28;97374;-73
2021/12/07 22:20:20;;;;;;;13.65;6.30;;;;;;;;;;5011021;28;96091;-74
2021/12/07 22:22:47;;;;;;;13.40;4.28;;;;;;;;;;5012059;28;95824;-74
2021/12/07 22:25:13;;;;;;;10.43;5.20;;;;;;;;;;5010264;28;97511;-74
2021/12/07 22:27:40;;;;;;;13.07;5.00;;;;;;;;;;5015464;28;95598;-74
2021/12/07 22:30:10;;;;;;;14.82;4.72;;;;;;;;;;5011488;28;96971;-73
2021/12/07 22:32:36;;;;;;;12.88;4.78;;;;;;;;;;5011707;28;95451;-74
2021/12/07 22:35:04;;;;;;;11.48;5.10;;;;;;;;;;5011903;28;96769;-75
2021/12/07 22:37:31;;;;;;;14.65;4.53;;;;;;;;;;5012231;28;97354;-74
2021/12/07 22:39:58;;;;;;;11.02;4.22;;;;;;;;;;5011695;28;95605;-74
2021/12/07 22:42:25;;;;;;;11.82;4.82;;;;;;;;;;5011158;28;96889;-74
2021/12/07 22:44:51;;;;;;;11.23;4.72;;;;;;;;;;5005597;28;96272;-75
2021/12/07 22:47:21;;;;;;;13.95;4.95;;;;;;;;;;5009401;28;95317;-74
2021/12/07 22:49:48;;;;;;;11.27;4.40;;;;;;;;;;5014705;28;96887;-74
2021/12/07 22:52:16;;;;;;;10.30;4.90;;;;;;;;;;5012058;28;95250;-73
2021/12/07 22:54:42;;;;;;;15.27;4.85;;;;;;;;;;5011651;28;95807;-73
2021/12/07 22:57:10;;;;;;;15.80;4.85;;;;;;;;;;5011664;28;97403;-74
2021/12/07 22:59:37;;;;;;;9.82;4.53;;;;;;;;;;5011180;28;95422;-73
2021/12/07 23:02:04;;;;;;;12.70;4.50;;;;;;;;;;5008269;28;96602;-74
2021/12/07 23:04:30;;;;;;;11.43;4.38;;;;;;;;;;5011333;28;97281;-74
2021/12/07 23:06:57;;;;;;;13.50;4.90;;;;;;;;;;5011090;28;95169;-73
2021/12/07 23:09:24;;;;;;;14.48;5.25;;;;;;;;;;5011168;28;97336;-73
2021/12/07 23:11:50;;;;;;;9.65;4.70;;;;;;;;;;5013851;28;96746;-73
2021/12/07 23:14:17;;;;;;;11.82;4.80;;;;;;;;;;5006707;28;98507;-73
2021/12/07 23:16:48;;;;;;;10.60;5.07;;;;;;;;;;5010071;28;97675;-73
2021/12/07 23:19:14;;;;;;;13.00;4.85;;;;;;;;;;5009775;28;95388;-73
2021/12/07 23:21:41;;;;;;;12.40;5.15;;;;;;;;;;5009348;28;97015;-72
2021/12/07 23:24:15;;;;;;;15.52;5.03;;;;;;;;;;5010691;28;97240;-74
2021/12/07 23:26:43;;;;;;;15.23;5.10;;;;;;;;;;5011985;28;95224;-74
2021/12/07 23:29:10;;;;;;;16.45;5.30;;;;;;;;;;5009149;28;99708;-74
2021/12/07 23:31:36;;;;;;;13.05;5.03;;;;;;;;;;5010922;28;97318;-74
2021/12/07 23:34:04;;;;;;;11.70;5.63;;;;;;;;;;5014008;28;95435;-74
2021/12/07 23:36:31;;;;;;;11.88;5.15;;;;;;;;;;5010840;28;97380;-74
2021/12/07 23:38:58;;;;;;;13.05;4.72;;;;;;;;;;5011417;28;95314;-74
2021/12/07 23:41:27;;;;;;;14.05;5.20;;;;;;;;;;5010282;28;97887;-74
2021/12/07 23:43:54;;;;;;;16.13;5.70;;;;;;;;;;5011271;28;97626;-74
2021/12/07 23:46:21;;;;;;;13.70;5.43;;;;;;;;;;5010731;28;95295;-74
2021/12/07 23:48:48;;;;;;;16.95;5.78;;;;;;;;;;5009880;28;95779;-74
2021/12/07 23:51:15;;;;;;;11.50;5.15;;;;;;;;;;5008831;28;97146;-75
2021/12/07 23:53:41;;;;;;;14.35;5.63;;;;;;;;;;5011296;28;95979;-74
2021/12/07 23:56:08;;;;;;;10.63;6.30;;;;;;;;;;5015530;28;96873;-74
2021/12/07 23:58:35;;;;;;;13.30;6.07;;;;;;;;;;5013609;28;96720;-74
